CMP391 MPTO-MROC
Flight info
| Callsign | CMP391 |
|---|---|
| Flight time | 0h 54m |
| Altitude | 34000 |
| Route | SIMAN3B SIMAN DCT ISEBA CUARE3I |
| Aircraft | B738/M-SDE2E3FGHIRWXY/LB1 |
Departure
| Time | 2026-05-04 00:16 |
|---|---|
| Airport | Tocumen International Airport (MPTO) |
Arrival
| Time | 2026-05-04 01:11 |
|---|---|
| Airport | Juan Santamaría International Airport (MROC) |
| Time | Latitude | Longitude | Altitude | Speed | Heading |
|---|---|---|---|---|---|
| 2026-05-04 00:08 | 9.06860 | -79.38527 | 115 ft | 0 kts | 172° |
| 2026-05-04 00:10 | 9.06866 | -79.38528 | 143 ft | 2 kts | 172° |
| 2026-05-04 00:10 | 9.06882 | -79.38530 | 143 ft | 2 kts | 172° |
| 2026-05-04 00:10 | 9.06898 | -79.38532 | 143 ft | 2 kts | 151° |
| 2026-05-04 00:10 | 9.06907 | -79.38545 | 143 ft | 2 kts | 63° |
| 2026-05-04 00:11 | 9.06905 | -79.38549 | 143 ft | 0 kts | 61° |
| 2026-05-04 00:11 | 9.06916 | -79.38534 | 143 ft | 4 kts | 46° |
| 2026-05-04 00:11 | 9.06930 | -79.38513 | 143 ft | 3 kts | 61° |
| 2026-05-04 00:11 | 9.06942 | -79.38492 | 143 ft | 3 kts | 59° |
| 2026-05-04 00:12 | 9.06957 | -79.38472 | 143 ft | 3 kts | 46° |
| 2026-05-04 00:12 | 9.06976 | -79.38456 | 143 ft | 4 kts | 35° |
| 2026-05-04 00:12 | 9.06993 | -79.38445 | 143 ft | 0 kts | 28° |
| 2026-05-04 00:13 | 9.06996 | -79.38444 | 143 ft | 2 kts | 27° |
| 2026-05-04 00:14 | 9.07027 | -79.38428 | 143 ft | 9 kts | 28° |
| 2026-05-04 00:14 | 9.07111 | -79.38391 | 143 ft | 16 kts | 3° |
| 2026-05-04 00:14 | 9.07186 | -79.38468 | 143 ft | 16 kts | 299° |
| 2026-05-04 00:14 | 9.07199 | -79.38491 | 143 ft | 16 kts | 300° |
| 2026-05-04 00:15 | 9.07253 | -79.38586 | 143 ft | 15 kts | 292° |
| 2026-05-04 00:15 | 9.07282 | -79.38686 | 142 ft | 15 kts | 303° |
| 2026-05-04 00:16 | 9.07374 | -79.38675 | 144 ft | 17 kts | 31° |
| 2026-05-04 00:16 | 9.07636 | -79.38519 | 145 ft | 84 kts | 31° |
| 2026-05-04 00:16 | 9.08372 | -79.38075 | 144 ft | 159 kts | 31° |
| 2026-05-04 00:16 | 9.09417 | -79.37451 | 793 ft | 176 kts | 31° |
| 2026-05-04 00:17 | 9.10441 | -79.36837 | 1943 ft | 168 kts | 28° |
| 2026-05-04 00:17 | 9.11517 | -79.36192 | 2550 ft | 193 kts | 29° |
| 2026-05-04 00:17 | 9.12757 | -79.35448 | 2800 ft | 220 kts | 30° |
| 2026-05-04 00:17 | 9.14115 | -79.34631 | 3191 ft | 235 kts | 30° |
| 2026-05-04 00:18 | 9.15552 | -79.33772 | 3670 ft | 250 kts | 27° |
| 2026-05-04 00:18 | 9.17266 | -79.33383 | 4228 ft | 260 kts | 355° |
| 2026-05-04 00:18 | 9.18978 | -79.33965 | 5051 ft | 264 kts | 327° |
| 2026-05-04 00:18 | 9.20215 | -79.35347 | 5848 ft | 272 kts | 298° |
| 2026-05-04 00:19 | 9.20789 | -79.37188 | 6609 ft | 279 kts | 282° |
| 2026-05-04 00:19 | 9.21049 | -79.39160 | 7270 ft | 286 kts | 278° |
| 2026-05-04 00:19 | 9.21224 | -79.41187 | 8009 ft | 291 kts | 276° |
| 2026-05-04 00:19 | 9.21386 | -79.43239 | 8781 ft | 295 kts | 276° |
| 2026-05-04 00:20 | 9.21556 | -79.45325 | 9547 ft | 299 kts | 276° |
| 2026-05-04 00:20 | 9.21738 | -79.47446 | 10239 ft | 304 kts | 276° |
| 2026-05-04 00:20 | 9.21935 | -79.49646 | 10496 ft | 326 kts | 276° |
| 2026-05-04 00:20 | 9.22154 | -79.51987 | 10680 ft | 348 kts | 276° |
| 2026-05-04 00:21 | 9.22395 | -79.54503 | 11103 ft | 359 kts | 276° |
| 2026-05-04 00:21 | 9.22640 | -79.57032 | 11715 ft | 363 kts | 276° |
| 2026-05-04 00:21 | 9.22890 | -79.59584 | 12392 ft | 365 kts | 276° |
| 2026-05-04 00:21 | 9.23140 | -79.62122 | 13022 ft | 369 kts | 276° |
| 2026-05-04 00:22 | 9.23398 | -79.64721 | 13636 ft | 373 kts | 276° |
| 2026-05-04 00:22 | 9.23659 | -79.67349 | 14205 ft | 376 kts | 275° |
| 2026-05-04 00:22 | 9.23922 | -79.69988 | 14759 ft | 379 kts | 275° |
| 2026-05-04 00:22 | 9.24188 | -79.72655 | 15314 ft | 382 kts | 275° |
| 2026-05-04 00:23 | 9.24456 | -79.75347 | 15849 ft | 386 kts | 275° |
| 2026-05-04 00:23 | 9.24726 | -79.78058 | 16385 ft | 389 kts | 275° |
| 2026-05-04 00:23 | 9.24999 | -79.80801 | 16913 ft | 392 kts | 275° |
| 2026-05-04 00:23 | 9.25273 | -79.83565 | 17423 ft | 396 kts | 275° |
| 2026-05-04 00:24 | 9.25550 | -79.86349 | 17928 ft | 399 kts | 274° |
| 2026-05-04 00:24 | 9.25829 | -79.89162 | 18405 ft | 403 kts | 275° |
| 2026-05-04 00:24 | 9.26109 | -79.91989 | 18862 ft | 405 kts | 274° |
| 2026-05-04 00:24 | 9.26391 | -79.94832 | 19322 ft | 407 kts | 275° |
| 2026-05-04 00:25 | 9.26674 | -79.97689 | 19785 ft | 408 kts | 275° |
| 2026-05-04 00:25 | 9.26955 | -80.00525 | 20228 ft | 410 kts | 275° |
| 2026-05-04 00:25 | 9.27240 | -80.03410 | 20667 ft | 413 kts | 275° |
| 2026-05-04 00:25 | 9.27526 | -80.06308 | 21085 ft | 415 kts | 275° |
| 2026-05-04 00:26 | 9.27814 | -80.09227 | 21498 ft | 417 kts | 275° |
| 2026-05-04 00:26 | 9.28103 | -80.12157 | 21914 ft | 419 kts | 275° |
| 2026-05-04 00:26 | 9.28394 | -80.15109 | 22328 ft | 421 kts | 275° |
| 2026-05-04 00:26 | 9.28682 | -80.18039 | 22718 ft | 424 kts | 275° |
| 2026-05-04 00:27 | 9.28975 | -80.21019 | 23109 ft | 426 kts | 275° |
| 2026-05-04 00:27 | 9.29269 | -80.24009 | 23485 ft | 428 kts | 275° |
| 2026-05-04 00:27 | 9.29563 | -80.27008 | 23797 ft | 429 kts | 275° |
| 2026-05-04 00:27 | 9.29859 | -80.30024 | 24094 ft | 432 kts | 275° |
| 2026-05-04 00:28 | 9.30157 | -80.33058 | 24398 ft | 434 kts | 275° |
| 2026-05-04 00:28 | 9.30456 | -80.36114 | 24685 ft | 435 kts | 275° |
| 2026-05-04 00:28 | 9.30755 | -80.39173 | 24978 ft | 437 kts | 275° |
| 2026-05-04 00:28 | 9.31055 | -80.42250 | 25267 ft | 439 kts | 275° |
| 2026-05-04 00:29 | 9.31353 | -80.45301 | 25551 ft | 441 kts | 275° |
| 2026-05-04 00:29 | 9.31656 | -80.48407 | 25826 ft | 443 kts | 275° |
| 2026-05-04 00:29 | 9.31960 | -80.51518 | 26100 ft | 445 kts | 275° |
| 2026-05-04 00:29 | 9.32264 | -80.54638 | 26369 ft | 447 kts | 275° |
| 2026-05-04 00:30 | 9.32569 | -80.57777 | 26641 ft | 449 kts | 275° |
| 2026-05-04 00:30 | 9.32875 | -80.60925 | 26897 ft | 451 kts | 274° |
| 2026-05-04 00:30 | 9.33182 | -80.64091 | 27152 ft | 453 kts | 275° |
| 2026-05-04 00:30 | 9.33491 | -80.67271 | 27406 ft | 454 kts | 275° |
| 2026-05-04 00:31 | 9.33800 | -80.70462 | 27648 ft | 456 kts | 275° |
| 2026-05-04 00:31 | 9.34110 | -80.73670 | 27891 ft | 458 kts | 275° |
| 2026-05-04 00:31 | 9.34421 | -80.76891 | 28120 ft | 460 kts | 275° |
| 2026-05-04 00:31 | 9.34734 | -80.80121 | 28366 ft | 462 kts | 275° |
| 2026-05-04 00:32 | 9.35046 | -80.83361 | 28616 ft | 463 kts | 275° |
| 2026-05-04 00:32 | 9.35360 | -80.86612 | 28836 ft | 465 kts | 275° |
| 2026-05-04 00:32 | 9.35675 | -80.89881 | 29049 ft | 467 kts | 275° |
| 2026-05-04 00:32 | 9.35991 | -80.93160 | 29263 ft | 468 kts | 275° |
| 2026-05-04 00:33 | 9.36303 | -80.96409 | 29486 ft | 470 kts | 275° |
| 2026-05-04 00:33 | 9.36937 | -81.03013 | 29901 ft | 473 kts | 275° |
| 2026-05-04 00:33 | 9.37255 | -81.06331 | 30091 ft | 474 kts | 275° |
| 2026-05-04 00:34 | 9.37574 | -81.09661 | 30258 ft | 475 kts | 275° |
| 2026-05-04 00:34 | 9.37893 | -81.13000 | 30431 ft | 477 kts | 275° |
| 2026-05-04 00:34 | 9.38213 | -81.16339 | 30649 ft | 477 kts | 275° |
| 2026-05-04 00:34 | 9.38532 | -81.19687 | 30901 ft | 476 kts | 275° |
| 2026-05-04 00:35 | 9.38850 | -81.23015 | 31183 ft | 474 kts | 275° |
| 2026-05-04 00:35 | 9.39167 | -81.26340 | 31453 ft | 474 kts | 275° |
| 2026-05-04 00:35 | 9.39479 | -81.29620 | 31689 ft | 473 kts | 275° |
| 2026-05-04 00:35 | 9.39794 | -81.32934 | 31937 ft | 473 kts | 275° |
| 2026-05-04 00:36 | 9.40272 | -81.36233 | 32158 ft | 474 kts | 285° |
| 2026-05-04 00:36 | 9.41489 | -81.39330 | 32405 ft | 474 kts | 296° |
| 2026-05-04 00:36 | 9.43059 | -81.42268 | 32698 ft | 473 kts | 299° |
| 2026-05-04 00:36 | 9.44709 | -81.45150 | 32935 ft | 473 kts | 300° |
| 2026-05-04 00:37 | 9.46386 | -81.48013 | 33212 ft | 472 kts | 300° |
| 2026-05-04 00:37 | 9.48069 | -81.50868 | 33490 ft | 472 kts | 300° |
| 2026-05-04 00:37 | 9.49758 | -81.53721 | 33756 ft | 471 kts | 300° |
| 2026-05-04 00:37 | 9.51445 | -81.56562 | 33951 ft | 470 kts | 301° |
| 2026-05-04 00:38 | 9.53139 | -81.59407 | 33933 ft | 473 kts | 301° |
| 2026-05-04 00:38 | 9.56524 | -81.65083 | 33940 ft | 471 kts | 301° |
| 2026-05-04 00:39 | 9.59913 | -81.70753 | 33952 ft | 470 kts | 301° |
| 2026-05-04 00:39 | 9.63300 | -81.76413 | 33944 ft | 469 kts | 301° |
| 2026-05-04 00:40 | 9.66691 | -81.82068 | 33946 ft | 468 kts | 301° |
| 2026-05-04 00:40 | 9.70077 | -81.87704 | 33947 ft | 468 kts | 301° |
| 2026-05-04 00:41 | 9.73464 | -81.93332 | 33944 ft | 468 kts | 301° |
| 2026-05-04 00:41 | 9.76860 | -81.98963 | 33944 ft | 468 kts | 301° |
| 2026-05-04 00:42 | 9.79577 | -82.04867 | 33950 ft | 466 kts | 282° |
| 2026-05-04 00:42 | 9.80676 | -82.11331 | 33951 ft | 466 kts | 278° |
| 2026-05-04 00:43 | 9.81711 | -82.17842 | 33950 ft | 466 kts | 278° |
| 2026-05-04 00:43 | 9.82803 | -82.24336 | 33950 ft | 467 kts | 279° |
| 2026-05-04 00:44 | 9.83921 | -82.30795 | 33947 ft | 467 kts | 279° |
| 2026-05-04 00:44 | 9.85049 | -82.37281 | 33950 ft | 467 kts | 279° |
| 2026-05-04 00:45 | 9.86175 | -82.43775 | 33950 ft | 467 kts | 279° |
| 2026-05-04 00:45 | 9.87296 | -82.50256 | 33953 ft | 466 kts | 279° |
| 2026-05-04 00:46 | 9.88408 | -82.56698 | 33950 ft | 466 kts | 279° |
| 2026-05-04 00:46 | 9.89523 | -82.63166 | 33953 ft | 466 kts | 279° |
| 2026-05-04 00:47 | 9.90639 | -82.69642 | 33951 ft | 465 kts | 279° |
| 2026-05-04 00:47 | 9.91750 | -82.76102 | 33949 ft | 465 kts | 279° |
| 2026-05-04 00:48 | 9.92861 | -82.82569 | 33948 ft | 465 kts | 279° |
| 2026-05-04 00:48 | 9.93416 | -82.85802 | 33776 ft | 467 kts | 279° |
| 2026-05-04 00:48 | 9.93976 | -82.89064 | 33150 ft | 471 kts | 279° |
| 2026-05-04 00:48 | 9.94536 | -82.92332 | 32615 ft | 467 kts | 279° |
| 2026-05-04 00:49 | 9.95082 | -82.95513 | 32157 ft | 462 kts | 279° |
| 2026-05-04 00:49 | 9.95631 | -82.98720 | 31682 ft | 459 kts | 279° |
| 2026-05-04 00:49 | 9.96174 | -83.01895 | 31213 ft | 455 kts | 278° |
| 2026-05-04 00:49 | 9.96422 | -83.05086 | 30747 ft | 451 kts | 266° |
| 2026-05-04 00:50 | 9.96035 | -83.08212 | 30302 ft | 445 kts | 256° |
| 2026-05-04 00:50 | 9.95154 | -83.11202 | 29806 ft | 441 kts | 246° |
| 2026-05-04 00:50 | 9.93861 | -83.14004 | 29308 ft | 436 kts | 242° |
| 2026-05-04 00:50 | 9.92515 | -83.16756 | 28801 ft | 433 kts | 242° |
| 2026-05-04 00:51 | 9.91184 | -83.19480 | 28325 ft | 429 kts | 242° |
| 2026-05-04 00:51 | 9.89874 | -83.22184 | 27861 ft | 426 kts | 243° |
| 2026-05-04 00:51 | 9.88581 | -83.24878 | 27393 ft | 423 kts | 243° |
| 2026-05-04 00:51 | 9.87301 | -83.27561 | 26946 ft | 419 kts | 243° |
| 2026-05-04 00:52 | 9.86056 | -83.30179 | 26497 ft | 417 kts | 243° |
| 2026-05-04 00:52 | 9.84802 | -83.32821 | 26049 ft | 414 kts | 244° |
| 2026-05-04 00:52 | 9.83931 | -83.35596 | 25575 ft | 414 kts | 262° |
| 2026-05-04 00:52 | 9.83857 | -83.37560 | 25293 ft | 413 kts | 274° |
| 2026-05-04 00:53 | 9.84613 | -83.41319 | 24770 ft | 409 kts | 285° |
| 2026-05-04 00:53 | 9.85411 | -83.44078 | 24442 ft | 404 kts | 286° |
| 2026-05-04 00:53 | 9.85955 | -83.45872 | 24280 ft | 399 kts | 286° |
| 2026-05-04 00:53 | 9.86777 | -83.48541 | 23968 ft | 396 kts | 287° |
| 2026-05-04 00:54 | 9.87611 | -83.51228 | 23577 ft | 403 kts | 287° |
| 2026-05-04 00:54 | 9.88465 | -83.53967 | 23066 ft | 409 kts | 287° |
| 2026-05-04 00:54 | 9.89326 | -83.56715 | 22677 ft | 406 kts | 287° |
| 2026-05-04 00:54 | 9.90179 | -83.59430 | 22300 ft | 402 kts | 287° |
| 2026-05-04 00:55 | 9.91029 | -83.62125 | 21927 ft | 399 kts | 287° |
| 2026-05-04 00:55 | 9.91874 | -83.64797 | 21557 ft | 396 kts | 287° |
| 2026-05-04 00:55 | 9.92696 | -83.67384 | 21210 ft | 394 kts | 287° |
| 2026-05-04 00:55 | 9.93536 | -83.70025 | 20856 ft | 393 kts | 287° |
| 2026-05-04 00:56 | 9.94446 | -83.72636 | 20491 ft | 392 kts | 293° |
| 2026-05-04 00:56 | 9.95623 | -83.75136 | 20155 ft | 391 kts | 296° |
| 2026-05-04 00:56 | 9.96862 | -83.77587 | 19810 ft | 390 kts | 297° |
| 2026-05-04 00:56 | 9.98119 | -83.80031 | 19471 ft | 389 kts | 297° |
| 2026-05-04 00:57 | 9.99376 | -83.82465 | 19072 ft | 390 kts | 297° |
| 2026-05-04 00:57 | 10.00640 | -83.84909 | 18634 ft | 392 kts | 297° |
| 2026-05-04 00:57 | 10.01909 | -83.87355 | 18181 ft | 392 kts | 297° |
| 2026-05-04 00:57 | 10.02446 | -83.88390 | 17968 ft | 392 kts | 297° |
| 2026-05-04 00:58 | 10.03652 | -83.90714 | 17492 ft | 391 kts | 297° |
| 2026-05-04 00:58 | 10.04912 | -83.93146 | 17005 ft | 389 kts | 297° |
| 2026-05-04 00:58 | 10.06162 | -83.95571 | 16517 ft | 387 kts | 297° |
| 2026-05-04 00:58 | 10.07404 | -83.97991 | 16038 ft | 384 kts | 297° |
| 2026-05-04 00:59 | 10.08630 | -84.00391 | 15576 ft | 382 kts | 297° |
| 2026-05-04 00:59 | 10.09846 | -84.02786 | 15110 ft | 380 kts | 297° |
| 2026-05-04 00:59 | 10.11048 | -84.05164 | 14727 ft | 375 kts | 297° |
| 2026-05-04 00:59 | 10.12225 | -84.07504 | 14453 ft | 368 kts | 297° |
| 2026-05-04 01:00 | 10.13354 | -84.09761 | 14232 ft | 361 kts | 297° |
| 2026-05-04 01:00 | 10.14482 | -84.12024 | 13994 ft | 353 kts | 297° |
| 2026-05-04 01:00 | 10.15575 | -84.14229 | 13728 ft | 346 kts | 297° |
| 2026-05-04 01:00 | 10.16635 | -84.16391 | 13482 ft | 339 kts | 294° |
| 2026-05-04 01:01 | 10.17200 | -84.18687 | 13200 ft | 335 kts | 271° |
| 2026-05-04 01:01 | 10.16850 | -84.20993 | 12946 ft | 329 kts | 249° |
| 2026-05-04 01:01 | 10.15905 | -84.23082 | 12720 ft | 323 kts | 243° |
| 2026-05-04 01:01 | 10.14892 | -84.25107 | 12453 ft | 320 kts | 241° |
| 2026-05-04 01:02 | 10.13788 | -84.27055 | 12218 ft | 317 kts | 238° |
| 2026-05-04 01:02 | 10.12645 | -84.28959 | 11979 ft | 314 kts | 238° |
| 2026-05-04 01:02 | 10.11519 | -84.30821 | 11734 ft | 312 kts | 238° |
| 2026-05-04 01:02 | 10.10394 | -84.32696 | 11487 ft | 310 kts | 238° |
| 2026-05-04 01:03 | 10.09282 | -84.34565 | 11281 ft | 308 kts | 238° |
| 2026-05-04 01:03 | 10.08181 | -84.36428 | 11071 ft | 306 kts | 239° |
| 2026-05-04 01:03 | 10.07090 | -84.38281 | 10879 ft | 307 kts | 239° |
| 2026-05-04 01:03 | 10.05995 | -84.40144 | 10683 ft | 308 kts | 239° |
| 2026-05-04 01:04 | 10.04905 | -84.42002 | 10440 ft | 305 kts | 239° |
| 2026-05-04 01:04 | 10.03825 | -84.43842 | 10194 ft | 301 kts | 239° |
| 2026-05-04 01:04 | 10.02731 | -84.45646 | 9949 ft | 298 kts | 232° |
| 2026-05-04 01:04 | 10.01123 | -84.46917 | 9568 ft | 294 kts | 198° |
| 2026-05-04 01:05 | 9.99156 | -84.47242 | 9322 ft | 282 kts | 180° |
| 2026-05-04 01:05 | 9.97195 | -84.47268 | 8943 ft | 281 kts | 178° |
| 2026-05-04 01:05 | 9.95272 | -84.47251 | 8570 ft | 278 kts | 172° |
| 2026-05-04 01:05 | 9.93462 | -84.46666 | 8193 ft | 272 kts | 144° |
| 2026-05-04 01:06 | 9.92187 | -84.45338 | 7848 ft | 259 kts | 114° |
| 2026-05-04 01:06 | 9.91828 | -84.43603 | 7402 ft | 251 kts | 87° |
| 2026-05-04 01:06 | 9.91994 | -84.41847 | 6910 ft | 249 kts | 78° |
| 2026-05-04 01:06 | 9.92362 | -84.40143 | 6540 ft | 244 kts | 74° |
| 2026-05-04 01:07 | 9.92843 | -84.38523 | 6230 ft | 236 kts | 69° |
| 2026-05-04 01:07 | 9.93401 | -84.36987 | 5941 ft | 228 kts | 68° |
| 2026-05-04 01:07 | 9.93953 | -84.35516 | 5662 ft | 218 kts | 68° |
| 2026-05-04 01:07 | 9.94479 | -84.34105 | 5388 ft | 209 kts | 68° |
| 2026-05-04 01:08 | 9.94983 | -84.32746 | 5134 ft | 202 kts | 68° |
| 2026-05-04 01:08 | 9.95471 | -84.31433 | 4882 ft | 195 kts | 68° |
| 2026-05-04 01:08 | 9.95937 | -84.30175 | 4645 ft | 185 kts | 68° |
| 2026-05-04 01:08 | 9.96365 | -84.29019 | 4423 ft | 170 kts | 68° |
| 2026-05-04 01:09 | 9.96766 | -84.27940 | 4241 ft | 159 kts | 67° |
| 2026-05-04 01:09 | 9.97163 | -84.26876 | 4019 ft | 161 kts | 68° |
| 2026-05-04 01:09 | 9.97560 | -84.25805 | 3812 ft | 164 kts | 69° |
| 2026-05-04 01:09 | 9.97961 | -84.24726 | 3575 ft | 162 kts | 70° |
| 2026-05-04 01:10 | 9.98353 | -84.23668 | 3346 ft | 158 kts | 69° |
| 2026-05-04 01:10 | 9.98737 | -84.22635 | 3097 ft | 156 kts | 69° |
| 2026-05-04 01:10 | 9.99124 | -84.21595 | 2979 ft | 153 kts | 69° |
| 2026-05-04 01:10 | 9.99454 | -84.20716 | 3032 ft | 113 kts | 69° |
| 2026-05-04 01:11 | 9.99679 | -84.20119 | 3036 ft | 53 kts | 69° |
| 2026-05-04 01:11 | 9.99743 | -84.19992 | 3037 ft | 5 kts | 354° |
| 2026-05-04 01:11 | 9.99782 | -84.20008 | 3035 ft | 8 kts | 333° |
| 2026-05-04 01:11 | 9.99796 | -84.20036 | 3033 ft | 5 kts | 281° |
| 2026-05-04 01:12 | 9.99790 | -84.20075 | 3035 ft | 6 kts | 247° |
| 2026-05-04 01:12 | 9.99772 | -84.20124 | 3033 ft | 9 kts | 249° |
| 2026-05-04 01:12 | 9.99748 | -84.20189 | 3033 ft | 11 kts | 249° |
| 2026-05-04 01:12 | 9.99717 | -84.20270 | 3034 ft | 13 kts | 249° |
| 2026-05-04 01:13 | 9.99682 | -84.20366 | 3036 ft | 16 kts | 249° |
| 2026-05-04 01:13 | 9.99642 | -84.20473 | 3033 ft | 15 kts | 249° |
| 2026-05-04 01:13 | 9.99657 | -84.20548 | 3035 ft | 12 kts | 334° |
| 2026-05-04 01:13 | 9.99691 | -84.20562 | 3034 ft | 0 kts | 339° |